createdAt,value
2023-01-21T00:01:11.590Z,100296.41
2023-01-21T00:03:59.960Z,100294.31
2023-01-21T00:06:49.142Z,100295.50
2023-01-21T00:09:37.075Z,100295.31
2023-01-21T00:12:25.055Z,100298.19
2023-01-21T00:15:12.986Z,100307.72
2023-01-21T00:18:02.240Z,100286.56
2023-01-21T00:20:50.172Z,100300.81
2023-01-21T00:23:38.128Z,100307.41
2023-01-21T00:26:26.105Z,100310.94
2023-01-21T00:29:14.358Z,100312.03
2023-01-21T00:32:02.284Z,100316.16
2023-01-21T00:34:51.582Z,100317.84
2023-01-21T00:37:39.640Z,100319.16
2023-01-21T00:40:27.710Z,100311.31
2023-01-21T00:43:15.647Z,100323.06
2023-01-21T00:46:03.967Z,100325.97
2023-01-21T00:48:51.966Z,100332.97
2023-01-21T00:51:41.260Z,100331.41
2023-01-21T00:54:31.182Z,100337.19
2023-01-21T00:57:19.133Z,100338.59
2023-01-21T01:00:11.042Z,100352.66
2023-01-21T01:02:59.026Z,100355.25
2023-01-21T01:05:46.930Z,100353.66
2023-01-21T01:08:36.287Z,100361.56
2023-01-21T01:11:25.703Z,100363.19
2023-01-21T01:14:13.629Z,100375.50
2023-01-21T01:17:01.553Z,100375.41
2023-01-21T01:19:49.457Z,100379.41
2023-01-21T01:22:37.380Z,100373.78
2023-01-21T01:25:26.650Z,100388.16
2023-01-21T01:28:14.593Z,100390.16
2023-01-21T01:31:04.869Z,100390.34
2023-01-21T01:33:52.825Z,100394.44
2023-01-21T01:36:40.724Z,100391.06
2023-01-21T01:39:28.662Z,100389.66
2023-01-21T01:42:17.998Z,100394.56
2023-01-21T01:45:08.379Z,100394.75
2023-01-21T01:48:02.400Z,100400.09
2023-01-21T01:50:50.655Z,100396.66
2023-01-21T01:53:41.853Z,100393.75
2023-01-21T01:56:31.353Z,100412.91
2023-01-21T01:59:21.057Z,100410.78
2023-01-21T02:02:12.345Z,100408.59
2023-01-21T02:05:05.624Z,100404.59
2023-01-21T02:07:53.772Z,100416.78
2023-01-21T02:10:41.684Z,100415.78
2023-01-21T02:13:33.188Z,100415.78
2023-01-21T02:16:37.413Z,100420.16
2023-01-21T02:19:50.786Z,100419.44
2023-01-21T02:22:49.276Z,100428.56
2023-01-21T02:26:10.578Z,100424.31
2023-01-21T02:29:21.559Z,100425.84
2023-01-21T02:32:38.873Z,100421.75
2023-01-21T02:35:37.741Z,100409.19
2023-01-21T02:38:31.082Z,100436.56
2023-01-21T02:41:30.628Z,100438.69
2023-01-21T02:44:26.280Z,100445.34
2023-01-21T02:47:23.718Z,100446.19
2023-01-21T02:50:18.787Z,100441.09
2023-01-21T02:53:08.264Z,100445.91
2023-01-21T02:55:58.498Z,100452.19
2023-01-21T02:58:48.916Z,100451.09
2023-01-21T03:01:51.719Z,100446.78
2023-01-21T03:04:52.990Z,100447.91
2023-01-21T03:07:47.663Z,100449.50
2023-01-21T03:10:42.799Z,100461.97
2023-01-21T03:13:53.062Z,100456.47
2023-01-21T03:16:57.940Z,100461.63
2023-01-21T03:19:53.396Z,100465.19
2023-01-21T03:22:42.805Z,100458.63
2023-01-21T03:25:34.192Z,100431.72
2023-01-21T03:28:27.295Z,100475.63
2023-01-21T03:32:05.131Z,100480.81
2023-01-21T03:34:55.717Z,100479.09
2023-01-21T03:37:49.690Z,100481.78
2023-01-21T03:40:41.648Z,100472.13
2023-01-21T03:43:31.094Z,100485.00
2023-01-21T03:46:25.556Z,100489.94
2023-01-21T03:49:19.105Z,100484.41
2023-01-21T03:52:09.065Z,100482.81
2023-01-21T03:54:57.559Z,100460.16
2023-01-21T03:57:45.802Z,100492.31
2023-01-21T04:00:35.072Z,100490.84
2023-01-21T04:03:23.745Z,100498.88
2023-01-21T04:06:14.680Z,100498.50
2023-01-21T04:09:02.608Z,100501.34
2023-01-21T04:11:50.534Z,100501.94
2023-01-21T04:14:38.719Z,100513.16
2023-01-21T04:17:28.719Z,100513.25
2023-01-21T04:20:17.071Z,100516.63
2023-01-21T04:23:05.174Z,100513.56
2023-01-21T04:25:53.372Z,100512.84
2023-01-21T04:28:42.048Z,100521.16
2023-01-21T04:31:29.986Z,100522.97
2023-01-21T04:34:19.284Z,100524.22
2023-01-21T04:37:07.570Z,100536.97
2023-01-21T04:39:55.472Z,100528.59
2023-01-21T04:42:43.874Z,100539.03
2023-01-21T04:45:31.819Z,100535.69
2023-01-21T04:48:19.839Z,100540.41
2023-01-21T04:51:09.202Z,100554.72
2023-01-21T04:53:57.197Z,100552.25
2023-01-21T04:56:45.232Z,100545.34
2023-01-21T04:59:33.131Z,100546.97
2023-01-21T05:02:21.118Z,100550.53
2023-01-21T05:05:09.399Z,100548.72
2023-01-21T05:07:58.705Z,100554.38
2023-01-21T05:10:46.683Z,100561.09
2023-01-21T05:13:34.591Z,100572.16
2023-01-21T05:16:23.129Z,100568.41
2023-01-21T05:19:11.880Z,100567.59
2023-01-21T05:21:59.785Z,100567.69
2023-01-21T05:24:49.057Z,100572.22
2023-01-21T05:27:36.956Z,100580.84
2023-01-21T05:30:24.886Z,100579.81
2023-01-21T05:33:12.945Z,100585.19
2023-01-21T05:36:02.651Z,100586.56
2023-01-21T05:38:50.869Z,100576.38
2023-01-21T05:41:40.117Z,100599.22
2023-01-21T05:44:28.083Z,100600.28
2023-01-21T05:47:16.005Z,100602.19
2023-01-21T05:50:04.308Z,100613.25
2023-01-21T05:52:52.518Z,100609.22
2023-01-21T05:55:40.769Z,100610.00
2023-01-21T05:58:30.460Z,100590.97
2023-01-21T06:01:18.351Z,100618.69
2023-01-21T06:04:06.382Z,100615.75
2023-01-21T06:06:54.276Z,100614.97
2023-01-21T06:09:42.225Z,100619.28
2023-01-21T06:12:30.186Z,100631.13
2023-01-21T06:15:19.821Z,100634.91
2023-01-21T06:18:07.906Z,100633.00
2023-01-21T06:20:55.824Z,100634.09
2023-01-21T06:23:43.741Z,100640.78
2023-01-21T06:26:31.681Z,100638.09
2023-01-21T06:29:19.716Z,100648.09
2023-01-21T06:32:09.185Z,100654.88
2023-01-21T06:34:57.212Z,100658.88
2023-01-21T06:37:45.941Z,100670.72
2023-01-21T06:40:34.235Z,100672.06
2023-01-21T06:43:22.170Z,100687.66
2023-01-21T06:46:10.559Z,100681.47
2023-01-21T06:49:00.483Z,100681.97
2023-01-21T06:51:48.959Z,100685.72
2023-01-21T06:54:36.895Z,100694.59
2023-01-21T06:57:25.230Z,100693.50
2023-01-21T07:00:14.341Z,100687.03
2023-01-21T07:03:02.400Z,100692.94
2023-01-21T07:05:51.724Z,100699.59
2023-01-21T07:08:39.671Z,100701.50
2023-01-21T07:11:27.693Z,100644.66
2023-01-21T07:14:15.622Z,100705.53
2023-01-21T07:17:03.575Z,100701.44
2023-01-21T07:19:51.509Z,100708.47
2023-01-21T07:22:40.802Z,100714.38
2023-01-21T07:25:28.734Z,100720.06
2023-01-21T07:28:17.056Z,100708.22
2023-01-21T07:31:05.309Z,100714.69
2023-01-21T07:33:53.439Z,100720.59
2023-01-21T07:36:41.730Z,100724.09
2023-01-21T07:39:31.020Z,100727.13
2023-01-21T07:42:18.914Z,100732.75
2023-01-21T07:45:07.839Z,100736.44
2023-01-21T07:47:55.948Z,100737.59
2023-01-21T07:50:43.954Z,100739.22
2023-01-21T07:53:31.941Z,100740.00
2023-01-21T07:56:21.213Z,100747.53
2023-01-21T07:59:10.721Z,100747.28
2023-01-21T08:01:58.912Z,100749.75
2023-01-21T08:04:46.910Z,100746.53
2023-01-21T08:07:34.870Z,100753.28
2023-01-21T08:10:23.102Z,100753.56
2023-01-21T08:13:12.340Z,100746.84
2023-01-21T08:16:00.294Z,100754.16
2023-01-21T08:18:48.206Z,100755.81
2023-01-21T08:21:36.180Z,100759.81
2023-01-21T08:24:24.128Z,100765.22
2023-01-21T08:27:12.064Z,100769.28
2023-01-21T08:30:01.355Z,100770.38
2023-01-21T08:32:49.782Z,100772.22
2023-01-21T08:35:37.735Z,100759.84
2023-01-21T08:38:25.724Z,100768.69
2023-01-21T08:41:13.622Z,100777.28
2023-01-21T08:44:01.819Z,100774.28
2023-01-21T08:46:51.279Z,100776.28
2023-01-21T08:49:39.182Z,100778.16
2023-01-21T08:52:27.220Z,100792.63
2023-01-21T08:55:15.550Z,100794.41
2023-01-21T08:58:03.596Z,100786.25
2023-01-21T09:00:51.903Z,100781.06
2023-01-21T09:03:41.242Z,100782.91
2023-01-21T09:06:30.929Z,100792.78
2023-01-21T09:09:18.853Z,100801.50
2023-01-21T09:12:08.045Z,100803.13
2023-01-21T09:14:55.983Z,100803.88
2023-01-21T09:17:43.879Z,100806.22
2023-01-21T09:20:33.253Z,100812.88
2023-01-21T09:23:28.000Z,100820.63
2023-01-21T09:26:18.583Z,100824.06
2023-01-21T09:29:06.557Z,100823.88
2023-01-21T09:31:54.694Z,100826.75
2023-01-21T09:34:42.623Z,100824.78
2023-01-21T09:37:34.635Z,100818.56
2023-01-21T09:40:22.527Z,100825.91
2023-01-21T09:43:14.560Z,100831.22
2023-01-21T09:46:06.168Z,100834.06
2023-01-21T09:48:56.806Z,100829.00
2023-01-21T09:51:52.741Z,100826.84
2023-01-21T09:54:42.301Z,100832.06
2023-01-21T09:58:07.687Z,100839.59
2023-01-21T10:01:03.986Z,100838.47
2023-01-21T10:03:56.793Z,100832.75
2023-01-21T10:06:52.289Z,100833.59
2023-01-21T10:09:56.744Z,100840.56
2023-01-21T10:13:04.000Z,100831.53
2023-01-21T10:16:01.521Z,100831.13
2023-01-21T10:18:53.519Z,100835.56
2023-01-21T10:21:47.752Z,100839.53
2023-01-21T10:24:39.073Z,100841.78
2023-01-21T10:27:32.229Z,100837.41
2023-01-21T10:30:24.009Z,100835.47
2023-01-21T10:33:18.125Z,100839.03
2023-01-21T10:36:25.420Z,100816.50
2023-01-21T10:39:23.949Z,100827.06
2023-01-21T10:42:29.539Z,100833.22
2023-01-21T10:45:29.060Z,100831.88
2023-01-21T10:48:24.051Z,100834.56
2023-01-21T10:51:21.690Z,100829.66
2023-01-21T10:54:22.262Z,100825.16
2023-01-21T10:57:25.762Z,100827.47
2023-01-21T11:00:22.814Z,100837.28
2023-01-21T11:03:14.645Z,100806.44
2023-01-21T11:06:06.828Z,100824.91
2023-01-21T11:08:59.246Z,100828.28
2023-01-21T11:11:47.155Z,100835.34
2023-01-21T11:14:35.383Z,100825.31
2023-01-21T11:17:34.133Z,100832.72
2023-01-21T11:20:28.704Z,100835.75
2023-01-21T11:23:28.087Z,100834.47
2023-01-21T11:26:21.305Z,100835.78
2023-01-21T11:29:13.806Z,100838.13
2023-01-21T11:32:06.689Z,100831.31
2023-01-21T11:35:05.558Z,100827.91
2023-01-21T11:37:53.507Z,100829.22
2023-01-21T11:40:41.825Z,100832.00
2023-01-21T11:43:35.199Z,100836.78
2023-01-21T11:46:28.313Z,100828.13
2023-01-21T11:49:32.420Z,100836.25
2023-01-21T11:52:22.102Z,100840.03
2023-01-21T11:55:21.935Z,100832.53
2023-01-21T11:58:19.713Z,100836.19
2023-01-21T12:01:12.002Z,100840.28
2023-01-21T12:04:01.955Z,100843.44
2023-01-21T12:06:53.537Z,100834.75
2023-01-21T12:09:50.248Z,100827.47
2023-01-21T12:12:53.407Z,100830.16
2023-01-21T12:15:56.540Z,100826.06
2023-01-21T12:19:02.919Z,100824.22
2023-01-21T12:22:04.920Z,100826.22
2023-01-21T12:25:17.241Z,100822.09
2023-01-21T12:28:30.697Z,100832.69
2023-01-21T12:31:29.448Z,100821.38
2023-01-21T12:34:28.323Z,100826.78
2023-01-21T12:37:22.118Z,100830.19
2023-01-21T12:40:19.438Z,100840.19
2023-01-21T12:43:16.880Z,100837.16
2023-01-21T12:46:10.666Z,100825.72
2023-01-21T12:49:03.347Z,100826.22
2023-01-21T12:51:56.518Z,100833.31
2023-01-21T12:54:51.344Z,100830.34
2023-01-21T12:57:47.666Z,100835.22
2023-01-21T13:00:40.280Z,100840.09
2023-01-21T13:03:34.254Z,100837.34
2023-01-21T13:06:47.174Z,100835.63
2023-01-21T13:09:45.133Z,100833.53
2023-01-21T13:12:35.374Z,100842.31
2023-01-21T13:15:30.094Z,100842.13
2023-01-21T13:18:24.102Z,100832.78
2023-01-21T13:21:22.233Z,100835.88
2023-01-21T13:24:17.523Z,100844.91
2023-01-21T13:27:14.116Z,100842.63
2023-01-21T13:30:10.899Z,100830.47
2023-01-21T13:33:12.674Z,100836.41
2023-01-21T13:36:17.043Z,100835.09
2023-01-21T13:39:10.059Z,100835.66
2023-01-21T13:42:14.544Z,100838.31
2023-01-21T13:45:24.785Z,100839.25
2023-01-21T13:48:50.376Z,100834.34
2023-01-21T13:51:50.930Z,100831.22
2023-01-21T13:54:52.841Z,100840.56
2023-01-21T13:57:53.465Z,100841.06
2023-01-21T14:00:45.694Z,100824.91
2023-01-21T14:03:42.207Z,100813.41
2023-01-21T14:06:35.884Z,100832.94
2023-01-21T14:09:30.279Z,100851.28
2023-01-21T14:12:23.256Z,100850.84
2023-01-21T14:15:25.007Z,100843.41
2023-01-21T14:18:30.128Z,100851.19
2023-01-21T14:21:40.697Z,100849.22
2023-01-21T14:24:45.585Z,100841.16
2023-01-21T14:27:46.129Z,100845.19
2023-01-21T14:30:43.012Z,100845.09
2023-01-21T14:33:39.876Z,100853.47
2023-01-21T14:36:39.492Z,100850.19
2023-01-21T14:39:38.873Z,100862.31
2023-01-21T14:42:41.554Z,100857.09
2023-01-21T14:45:54.410Z,100856.78
2023-01-21T14:48:42.801Z,100857.28
2023-01-21T14:51:33.035Z,100854.56
2023-01-21T14:54:26.205Z,100857.97
2023-01-21T14:57:25.504Z,100856.66
2023-01-21T15:00:23.178Z,100858.06
2023-01-21T15:03:16.850Z,100857.25
2023-01-21T15:06:09.720Z,100853.94
2023-01-21T15:09:01.276Z,100861.50
2023-01-21T15:11:53.069Z,100856.63
2023-01-21T15:14:42.699Z,100856.34
2023-01-21T15:18:03.194Z,100855.91
2023-01-21T15:20:52.455Z,100862.25
2023-01-21T15:23:40.730Z,100867.41
2023-01-21T15:26:33.683Z,100866.66
2023-01-21T15:29:34.700Z,100868.09
2023-01-21T15:32:29.264Z,100867.28
2023-01-21T15:35:24.698Z,100866.91
2023-01-21T15:38:15.653Z,100857.09
2023-01-21T15:41:10.498Z,100868.09
2023-01-21T15:44:08.292Z,100871.91
2023-01-21T15:47:03.292Z,100868.22
2023-01-21T15:50:03.170Z,100869.00
2023-01-21T15:53:06.983Z,100870.91
2023-01-21T15:56:13.471Z,100869.00
2023-01-21T15:59:15.524Z,100870.06
2023-01-21T16:02:18.044Z,100839.56
2023-01-21T16:05:20.294Z,100872.41
2023-01-21T16:08:19.760Z,100878.56
2023-01-21T16:11:21.020Z,100876.78
2023-01-21T16:14:21.367Z,100873.69
2023-01-21T16:17:18.733Z,100867.34
2023-01-21T16:20:11.157Z,100878.13
2023-01-21T16:23:01.511Z,100878.28
2023-01-21T16:25:51.475Z,100871.03
2023-01-21T16:28:44.247Z,100881.56
2023-01-21T16:31:46.360Z,100883.81
2023-01-21T16:34:41.674Z,100889.44
2023-01-21T16:37:31.310Z,100888.09
2023-01-21T16:40:30.284Z,100866.25
2023-01-21T16:43:25.776Z,100895.09
2023-01-21T16:46:17.294Z,100892.91
2023-01-21T16:49:13.671Z,100886.47
2023-01-21T16:52:03.910Z,100892.97
2023-01-21T16:54:53.198Z,100896.25
2023-01-21T16:57:48.987Z,100894.09
2023-01-21T17:00:37.069Z,100889.47
2023-01-21T17:03:25.193Z,100889.97
2023-01-21T17:06:21.010Z,100893.72
2023-01-21T17:09:20.716Z,100905.75
2023-01-21T17:12:12.119Z,100904.56
2023-01-21T17:15:03.611Z,100901.63
2023-01-21T17:17:56.262Z,100894.31
2023-01-21T17:20:45.954Z,100893.50
2023-01-21T17:23:37.577Z,100899.22
2023-01-21T17:26:29.405Z,100893.63
2023-01-21T17:29:20.695Z,100884.19
2023-01-21T17:32:25.643Z,100883.81
2023-01-21T17:35:15.827Z,100868.78
2023-01-21T17:38:06.234Z,100890.84
2023-01-21T17:41:03.443Z,100892.75
2023-01-21T17:43:53.254Z,100886.00
2023-01-21T17:46:45.687Z,100887.63
2023-01-21T17:49:33.628Z,100893.03
2023-01-21T17:52:22.340Z,100904.69
2023-01-21T17:55:25.535Z,100907.13
2023-01-21T17:58:45.952Z,100907.13
2023-01-21T18:01:35.415Z,100904.38
2023-01-21T18:04:23.504Z,100908.13
2023-01-21T18:07:22.240Z,100896.31
2023-01-21T18:10:15.911Z,100907.09
2023-01-21T18:13:04.087Z,100908.81
2023-01-21T18:15:54.032Z,100909.28
2023-01-21T18:18:43.457Z,100908.72
2023-01-21T18:21:31.472Z,100903.31
2023-01-21T18:24:19.532Z,100902.19
2023-01-21T18:27:10.363Z,100895.47
2023-01-21T18:29:59.218Z,100897.31
2023-01-21T18:32:49.631Z,100899.44
2023-01-21T18:35:40.979Z,100896.00
2023-01-21T18:38:30.551Z,100898.44
2023-01-21T18:41:19.563Z,100903.59
2023-01-21T18:44:07.549Z,100912.53
2023-01-21T18:46:56.564Z,100910.09
2023-01-21T18:49:44.893Z,100890.47
2023-01-21T18:52:34.237Z,100907.97
2023-01-21T18:55:26.929Z,100904.94
2023-01-21T18:58:15.080Z,100911.69
2023-01-21T19:01:13.815Z,100908.94
2023-01-21T19:04:09.845Z,100912.75
2023-01-21T19:06:58.231Z,100916.19
2023-01-21T19:09:50.505Z,100909.41
2023-01-21T19:12:38.491Z,100909.72
2023-01-21T19:15:28.870Z,100914.03
2023-01-21T19:18:17.817Z,100909.19
2023-01-21T19:21:08.108Z,100909.94
2023-01-21T19:23:56.325Z,100907.75
2023-01-21T19:26:45.573Z,100912.91
2023-01-21T19:29:33.494Z,100908.03
2023-01-21T19:32:21.548Z,100904.78
2023-01-21T19:35:09.951Z,100911.44
2023-01-21T19:37:58.812Z,100905.78
2023-01-21T19:40:47.525Z,100898.44
2023-01-21T19:43:36.817Z,100901.16
2023-01-21T19:46:28.720Z,100902.50
2023-01-21T19:49:17.967Z,100897.91
2023-01-21T19:52:06.520Z,100904.66
2023-01-21T19:54:55.256Z,100902.75
2023-01-21T19:57:44.237Z,100908.94
2023-01-21T20:00:36.106Z,100914.88
2023-01-21T20:03:25.606Z,100910.06
2023-01-21T20:06:13.635Z,100909.47
2023-01-21T20:09:01.646Z,100908.41
2023-01-21T20:11:49.564Z,100913.00
2023-01-21T20:14:37.547Z,100905.66
2023-01-21T20:17:26.933Z,100905.69
2023-01-21T20:20:17.030Z,100900.88
2023-01-21T20:23:05.039Z,100897.06
2023-01-21T20:25:56.317Z,100886.78
2023-01-21T20:28:50.159Z,100885.13
2023-01-21T20:31:38.106Z,100886.19
2023-01-21T20:34:30.864Z,100883.47
2023-01-21T20:37:18.813Z,100890.19
2023-01-21T20:40:07.423Z,100889.41
2023-01-21T20:42:57.007Z,100892.66
2023-01-21T20:45:47.470Z,100897.53
2023-01-21T20:48:37.666Z,100891.06
2023-01-21T20:51:27.043Z,100887.75
2023-01-21T20:54:15.015Z,100895.31
2023-01-21T20:57:03.728Z,100890.09
2023-01-21T20:59:51.649Z,100880.56
2023-01-21T21:02:39.605Z,100889.81
2023-01-21T21:05:28.857Z,100890.81
2023-01-21T21:08:20.144Z,100882.38
2023-01-21T21:11:08.347Z,100878.25
2023-01-21T21:13:56.460Z,100877.75
2023-01-21T21:16:44.548Z,100879.75
2023-01-21T21:19:32.465Z,100872.44
2023-01-21T21:22:20.395Z,100877.53
2023-01-21T21:25:14.415Z,100878.94
2023-01-21T21:28:02.347Z,100872.31
2023-01-21T21:30:50.272Z,100855.13
2023-01-21T21:33:38.252Z,100865.53
2023-01-21T21:36:26.249Z,100868.22
2023-01-21T21:39:19.086Z,100862.28
2023-01-21T21:42:28.088Z,100862.00
2023-01-21T21:45:16.440Z,100857.84
2023-01-21T21:48:25.337Z,100804.72
2023-01-21T21:51:17.376Z,100854.97
2023-01-21T21:54:07.666Z,100855.59
2023-01-21T21:56:56.083Z,100869.09
2023-01-21T21:59:46.573Z,100861.75
2023-01-21T22:02:34.607Z,100767.88
2023-01-21T22:05:22.647Z,100860.34
2023-01-21T22:08:15.675Z,100855.47
2023-01-21T22:11:05.009Z,100850.13
2023-01-21T22:13:54.253Z,100850.59
2023-01-21T22:16:44.169Z,100848.47
2023-01-21T22:19:32.084Z,100845.94
2023-01-21T22:22:19.984Z,100847.00
2023-01-21T22:25:09.331Z,100843.50
2023-01-21T22:27:57.276Z,100838.16
2023-01-21T22:30:45.291Z,100837.84
2023-01-21T22:33:35.495Z,100837.75
2023-01-21T22:36:25.003Z,100824.28
2023-01-21T22:39:12.971Z,100831.78
2023-01-21T22:42:03.030Z,100833.13
2023-01-21T22:44:50.989Z,100824.22
2023-01-21T22:47:38.944Z,100823.06
2023-01-21T22:50:28.394Z,100816.72
2023-01-21T22:53:16.329Z,100817.88
2023-01-21T22:56:06.034Z,100816.72
2023-01-21T22:58:54.026Z,100807.88
2023-01-21T23:01:42.733Z,100805.03
2023-01-21T23:04:30.695Z,100792.44
2023-01-21T23:07:19.963Z,100795.59
2023-01-21T23:10:08.443Z,100785.63
2023-01-21T23:12:56.463Z,100796.22
2023-01-21T23:15:45.058Z,100793.00
2023-01-21T23:18:33.861Z,100794.56
2023-01-21T23:21:23.179Z,100800.28
2023-01-21T23:24:12.453Z,100787.78
2023-01-21T23:27:00.385Z,100793.00
2023-01-21T23:29:48.379Z,100798.13
2023-01-21T23:32:36.357Z,100782.66
2023-01-21T23:35:24.301Z,100784.56
2023-01-21T23:38:12.243Z,100783.44
2023-01-21T23:41:06.814Z,100781.09
2023-01-21T23:43:54.703Z,100777.47
2023-01-21T23:46:43.509Z,100784.03
2023-01-21T23:49:31.463Z,100783.38
2023-01-21T23:52:19.432Z,100792.31
2023-01-21T23:55:09.686Z,100779.88
2023-01-21T23:57:58.962Z,100775.25
